Atlantic Osprey — CFH8950 — position and weather

sailwx.info

Track history (hours):
 
Tides and Currents Weather Stations Pressure Air Temp Water Temp Dewpoint Dewpoint Depression Visibility Wind Speed Wind Dir Waves Ship Positions

Atlantic Osprey

Last reported at 2017-Apr-25 01:12 UTC. Time now 2017-Apr-27 05:01 UTC.
Position N 47°30' W 052°14'.

Length 3 m; draft 6.4 m.

Type: Tug. MMSI: 316004850.

Date/timePositionNaut miles runAvg speedWind from/ knotsBaromVisibWave heightAir tempDewpointWater temp
2017-Apr-25 01:12N 47°30' W 052°14'2 9.7
2017-Apr-25 01:00N 47°30' W 052°17'5 9.9
2017-Apr-25 00:29N 47°32' W 052°24'5 9.8
2017-Apr-24 23:59N 47°32' W 052°31'1 0.6
2017-Apr-24 22:47N 47°32' W 052°32'0 0.0
2017-Apr-24 21:36N 47°32' W 052°32'0 4.1
2017-Apr-24 21:29N 47°32' W 052°33'4 8.0
2017-Apr-24 20:57N 47°34' W 052°39'2 4.8
2017-Apr-24 20:27N 47°34' W 052°42'0 0.0
2017-Apr-24 19:57N 47°34' W 052°42'0 0.0
2017-Apr-24 18:52N 47°34' W 052°42'0 0.0
2017-Apr-24 18:25N 47°34' W 052°42'0 0.0
2017-Apr-24 17:56N 47°34' W 052°42'0 0.0
2017-Apr-24 17:26N 47°34' W 052°42'0 0.0
2017-Apr-24 16:56N 47°34' W 052°42'5 0.6
2017-Apr-24 08:32N 47°33' W 052°35'1 5.6
2017-Apr-24 08:23N 47°33' W 052°34'2 5.3
2017-Apr-24 07:59N 47°32' W 052°31'  
2017-Apr-18 10:12N 47°30' W 052°21'3 9.7
2017-Apr-18 09:55N 47°31' W 052°24'4 9.8
2017-Apr-18 09:30N 47°32' W 052°30'5 9.8
2017-Apr-18 09:00N 47°33' W 052°37'3 6.5
2017-Apr-18 08:30N 47°34' W 052°42'0 0.0
2017-Apr-18 07:57N 47°34' W 052°42'0 0.0
2017-Apr-18 07:28N 47°34' W 052°42'0 0.0
2017-Apr-18 06:58N 47°34' W 052°42'0 0.0
2017-Apr-18 06:28N 47°34' W 052°42'0 0.0
2017-Apr-18 05:59N 47°34' W 052°42'0 0.0
2017-Apr-18 05:20N 47°34' W 052°42'0 0.0
2017-Apr-18 04:56N 47°34' W 052°42'0 0.0
2017-Apr-18 04:27N 47°34' W 052°42'0 0.0
2017-Apr-18 03:57N 47°34' W 052°42'0 0.0
2017-Apr-18 03:27N 47°34' W 052°42'0 0.0
2017-Apr-18 02:58N 47°34' W 052°42'0 0.0
2017-Apr-18 02:28N 47°34' W 052°42'0 0.0
2017-Apr-18 01:58N 47°34' W 052°42'0 0.0
2017-Apr-18 01:29N 47°34' W 052°42'0 0.0
2017-Apr-18 00:59N 47°34' W 052°42'0 0.0
2017-Apr-18 00:23N 47°34' W 052°42'0 0.0
2017-Apr-17 23:57N 47°34' W 052°42'0 0.0
2017-Apr-17 23:27N 47°34' W 052°42'0 0.0
2017-Apr-17 23:00N 47°34' W 052°42'0 0.0
2017-Apr-17 22:25N 47°34' W 052°42'0 0.0
2017-Apr-17 21:55N 47°34' W 052°42'0 0.0
2017-Apr-17 21:25N 47°34' W 052°42'0 0.0
2017-Apr-17 20:56N 47°34' W 052°42'0 0.0
2017-Apr-17 20:26N 47°34' W 052°42'0 0.0
2017-Apr-17 19:56N 47°34' W 052°42'0 0.0
2017-Apr-17 19:27N 47°34' W 052°42'0 0.0
2017-Apr-17 18:57N 47°34' W 052°42'0 0.0
2017-Apr-17 18:27N 47°34' W 052°42'0 0.0
2017-Apr-17 17:58N 47°34' W 052°42'0 0.0
2017-Apr-17 17:28N 47°34' W 052°42'0 0.0
2017-Apr-17 16:58N 47°34' W 052°42'0 0.0
2017-Apr-17 16:29N 47°34' W 052°42'0 0.0
2017-Apr-17 15:59N 47°34' W 052°42'0 0.0
2017-Apr-17 15:29N 47°34' W 052°42'0 0.0
2017-Apr-17 15:00N 47°34' W 052°42'0 0.0
2017-Apr-17 14:30N 47°34' W 052°42'0 0.0
2017-Apr-17 13:25N 47°34' W 052°42'0 0.0
2017-Apr-17 12:55N 47°34' W 052°42'0 0.0
2017-Apr-17 12:25N 47°34' W 052°42'0 0.0
2017-Apr-17 11:56N 47°34' W 052°42'0 0.0
2017-Apr-17 11:29N 47°34' W 052°42'0 0.0
2017-Apr-17 10:59N 47°34' W 052°42'0 0.0
2017-Apr-17 10:18N 47°34' W 052°42'0 0.0
2017-Apr-17 09:54N 47°34' W 052°42'0 0.0
2017-Apr-17 09:30N 47°34' W 052°42'0 0.0
2017-Apr-17 08:58N 47°34' W 052°42'0 0.0
2017-Apr-17 08:25N 47°34' W 052°42'0 0.0
2017-Apr-17 07:55N 47°34' W 052°42'0 0.0
2017-Apr-17 07:05N 47°34' W 052°42'0 0.0
2017-Apr-17 06:59N 47°34' W 052°42'0 0.0
2017-Apr-17 06:29N 47°34' W 052°42'0 0.0
2017-Apr-17 05:57N 47°34' W 052°42'0 0.0
2017-Apr-17 05:30N 47°34' W 052°42'0 0.0
2017-Apr-17 04:57N 47°34' W 052°42'0 0.0
2017-Apr-17 04:28N 47°34' W 052°42'0 0.0
2017-Apr-17 03:58N 47°34' W 052°42'0 0.0
2017-Apr-17 03:28N 47°34' W 052°42'0 0.0
2017-Apr-17 02:59N 47°34' W 052°42'0 0.0
2017-Apr-17 02:26N 47°34' W 052°42'0 0.0
2017-Apr-17 01:59N 47°34' W 052°42'0 0.0
2017-Apr-17 01:30N 47°34' W 052°42'0 0.0
2017-Apr-17 00:57N 47°34' W 052°42'0 0.0
2017-Apr-17 00:30N 47°34' W 052°42'0 0.0
2017-Apr-17 00:01N 47°34' W 052°42'0 0.0
2017-Apr-16 23:25N 47°34' W 052°42'0 0.0
2017-Apr-16 22:58N 47°34' W 052°42'0 0.1
2017-Apr-16 22:26N 47°34' W 052°42'1 3.5
2017-Apr-16 22:00N 47°34' W 052°40'4 8.9
2017-Apr-16 21:30N 47°33' W 052°33'2 3.2
2017-Apr-16 21:00N 47°33' W 052°31'2 3.4
2017-Apr-16 20:17N 47°32' W 052°27'  
Track history (hours):
 
Tides and Currents Weather Stations Pressure Air Temp Water Temp Dewpoint Dewpoint Depression Visibility Wind Speed Wind Dir Waves Ship Positions

Atlantic Osprey

Last reported at 2017-Apr-25 01:12 UTC. Time now 2017-Apr-27 05:01 UTC.
Position N 47°30' W 052°14'.

Length 3 m; draft 6.4 m.

Type: Tug. MMSI: 316004850.

Date/timePositionNaut miles runAvg speedWind from/ knotsBaromVisibWave heightAir tempDewpointWater temp
2017-Apr-25 01:12N 47°30' W 052°14'2 9.7
2017-Apr-25 01:00N 47°30' W 052°17'5 9.9
2017-Apr-25 00:29N 47°32' W 052°24'5 9.8
2017-Apr-24 23:59N 47°32' W 052°31'1 0.6
2017-Apr-24 22:47N 47°32' W 052°32'0 0.0
2017-Apr-24 21:36N 47°32' W 052°32'0 4.1
2017-Apr-24 21:29N 47°32' W 052°33'4 8.0
2017-Apr-24 20:57N 47°34' W 052°39'2 4.8
2017-Apr-24 20:27N 47°34' W 052°42'0 0.0
2017-Apr-24 19:57N 47°34' W 052°42'0 0.0
2017-Apr-24 18:52N 47°34' W 052°42'0 0.0
2017-Apr-24 18:25N 47°34' W 052°42'0 0.0
2017-Apr-24 17:56N 47°34' W 052°42'0 0.0
2017-Apr-24 17:26N 47°34' W 052°42'0 0.0
2017-Apr-24 16:56N 47°34' W 052°42'5 0.6
2017-Apr-24 08:32N 47°33' W 052°35'1 5.6
2017-Apr-24 08:23N 47°33' W 052°34'2 5.3
2017-Apr-24 07:59N 47°32' W 052°31'  
2017-Apr-18 10:12N 47°30' W 052°21'3 9.7
2017-Apr-18 09:55N 47°31' W 052°24'4 9.8
2017-Apr-18 09:30N 47°32' W 052°30'5 9.8
2017-Apr-18 09:00N 47°33' W 052°37'3 6.5
2017-Apr-18 08:30N 47°34' W 052°42'0 0.0
2017-Apr-18 07:57N 47°34' W 052°42'0 0.0
2017-Apr-18 07:28N 47°34' W 052°42'0 0.0
2017-Apr-18 06:58N 47°34' W 052°42'0 0.0
2017-Apr-18 06:28N 47°34' W 052°42'0 0.0
2017-Apr-18 05:59N 47°34' W 052°42'0 0.0
2017-Apr-18 05:20N 47°34' W 052°42'0 0.0
2017-Apr-18 04:56N 47°34' W 052°42'0 0.0
2017-Apr-18 04:27N 47°34' W 052°42'0 0.0
2017-Apr-18 03:57N 47°34' W 052°42'0 0.0
2017-Apr-18 03:27N 47°34' W 052°42'0 0.0
2017-Apr-18 02:58N 47°34' W 052°42'0 0.0
2017-Apr-18 02:28N 47°34' W 052°42'0 0.0
2017-Apr-18 01:58N 47°34' W 052°42'0 0.0
2017-Apr-18 01:29N 47°34' W 052°42'0 0.0
2017-Apr-18 00:59N 47°34' W 052°42'0 0.0
2017-Apr-18 00:23N 47°34' W 052°42'0 0.0
2017-Apr-17 23:57N 47°34' W 052°42'0 0.0
2017-Apr-17 23:27N 47°34' W 052°42'0 0.0
2017-Apr-17 23:00N 47°34' W 052°42'0 0.0
2017-Apr-17 22:25N 47°34' W 052°42'0 0.0
2017-Apr-17 21:55N 47°34' W 052°42'0 0.0
2017-Apr-17 21:25N 47°34' W 052°42'0 0.0
2017-Apr-17 20:56N 47°34' W 052°42'0 0.0
2017-Apr-17 20:26N 47°34' W 052°42'0 0.0
2017-Apr-17 19:56N 47°34' W 052°42'0 0.0
2017-Apr-17 19:27N 47°34' W 052°42'0 0.0
2017-Apr-17 18:57N 47°34' W 052°42'0 0.0
2017-Apr-17 18:27N 47°34' W 052°42'0 0.0
2017-Apr-17 17:58N 47°34' W 052°42'0 0.0
2017-Apr-17 17:28N 47°34' W 052°42'0 0.0
2017-Apr-17 16:58N 47°34' W 052°42'0 0.0
2017-Apr-17 16:29N 47°34' W 052°42'0 0.0
2017-Apr-17 15:59N 47°34' W 052°42'0 0.0
2017-Apr-17 15:29N 47°34' W 052°42'0 0.0
2017-Apr-17 15:00N 47°34' W 052°42'0 0.0
2017-Apr-17 14:30N 47°34' W 052°42'0 0.0
2017-Apr-17 13:25N 47°34' W 052°42'0 0.0
2017-Apr-17 12:55N 47°34' W 052°42'0 0.0
2017-Apr-17 12:25N 47°34' W 052°42'0 0.0
2017-Apr-17 11:56N 47°34' W 052°42'0 0.0
2017-Apr-17 11:29N 47°34' W 052°42'0 0.0
2017-Apr-17 10:59N 47°34' W 052°42'0 0.0
2017-Apr-17 10:18N 47°34' W 052°42'0 0.0
2017-Apr-17 09:54N 47°34' W 052°42'0 0.0
2017-Apr-17 09:30N 47°34' W 052°42'0 0.0
2017-Apr-17 08:58N 47°34' W 052°42'0 0.0
2017-Apr-17 08:25N 47°34' W 052°42'0 0.0
2017-Apr-17 07:55N 47°34' W 052°42'0 0.0
2017-Apr-17 07:05N 47°34' W 052°42'0 0.0
2017-Apr-17 06:59N 47°34' W 052°42'0 0.0
2017-Apr-17 06:29N 47°34' W 052°42'0 0.0
2017-Apr-17 05:57N 47°34' W 052°42'0 0.0
2017-Apr-17 05:30N 47°34' W 052°42'0 0.0
2017-Apr-17 04:57N 47°34' W 052°42'0 0.0
2017-Apr-17 04:28N 47°34' W 052°42'0 0.0
2017-Apr-17 03:58N 47°34' W 052°42'0 0.0
2017-Apr-17 03:28N 47°34' W 052°42'0 0.0
2017-Apr-17 02:59N 47°34' W 052°42'0 0.0
2017-Apr-17 02:26N 47°34' W 052°42'0 0.0
2017-Apr-17 01:59N 47°34' W 052°42'0 0.0
2017-Apr-17 01:30N 47°34' W 052°42'0 0.0
2017-Apr-17 00:57N 47°34' W 052°42'0 0.0
2017-Apr-17 00:30N 47°34' W 052°42'0 0.0
2017-Apr-17 00:01N 47°34' W 052°42'0 0.0
2017-Apr-16 23:25N 47°34' W 052°42'0 0.0
2017-Apr-16 22:58N 47°34' W 052°42'0 0.1
2017-Apr-16 22:26N 47°34' W 052°42'1 3.5
2017-Apr-16 22:00N 47°34' W 052°40'4 8.9
2017-Apr-16 21:30N 47°33' W 052°33'2 3.2
2017-Apr-16 21:00N 47°33' W 052°31'2 3.4
2017-Apr-16 20:17N 47°32' W 052°27'  

Dump ship's entire track history